createdAt,value
2023-02-17T00:00:17.710Z,5.75
2023-02-17T00:02:44.296Z,5.93
2023-02-17T00:05:10.891Z,5.32
2023-02-17T00:07:37.538Z,4.30
2023-02-17T00:10:04.259Z,5.55
2023-02-17T00:12:30.901Z,6.75
2023-02-17T00:14:57.477Z,4.43
2023-02-17T00:17:24.108Z,7.10
2023-02-17T00:19:50.711Z,5.88
2023-02-17T00:22:17.263Z,4.65
2023-02-17T00:24:43.981Z,7.30
2023-02-17T00:27:10.994Z,4.93
2023-02-17T00:29:37.661Z,4.75
2023-02-17T00:32:06.993Z,8.68
2023-02-17T00:34:33.684Z,5.25
2023-02-17T00:37:00.437Z,6.18
2023-02-17T00:39:27.076Z,4.45
2023-02-17T00:41:53.641Z,5.38
2023-02-17T00:44:23.376Z,6.13
2023-02-17T00:46:50.480Z,9.88
2023-02-17T00:49:20.131Z,5.40
2023-02-17T00:51:47.389Z,5.97
2023-02-17T00:54:15.209Z,6.32
2023-02-17T00:56:42.001Z,6.15
2023-02-17T00:59:09.864Z,7.50
2023-02-17T01:01:37.290Z,8.82
2023-02-17T01:04:04.478Z,7.47
2023-02-17T01:06:34.463Z,7.45
2023-02-17T01:09:01.509Z,9.93
2023-02-17T01:11:31.959Z,10.07
2023-02-17T01:13:59.838Z,8.50
2023-02-17T01:16:35.306Z,9.48
2023-02-17T01:19:08.280Z,8.38
2023-02-17T01:21:35.803Z,9.07
2023-02-17T01:24:04.526Z,10.07
2023-02-17T01:26:33.809Z,9.23
2023-02-17T01:29:00.700Z,11.07
2023-02-17T01:31:27.869Z,7.68
2023-02-17T01:33:56.944Z,9.57
2023-02-17T01:36:24.272Z,13.60
2023-02-17T01:38:51.246Z,9.38
2023-02-17T01:41:19.773Z,15.27
2023-02-17T01:44:05.092Z,9.68
2023-02-17T01:46:36.334Z,9.40
2023-02-17T01:49:28.101Z,14.30
2023-02-17T01:52:03.730Z,11.32
2023-02-17T01:54:37.624Z,10.30
2023-02-17T01:57:04.919Z,11.07
2023-02-17T01:59:32.512Z,13.10
2023-02-17T02:02:03.862Z,9.48
2023-02-17T02:04:34.506Z,12.02
2023-02-17T02:07:01.132Z,11.45
2023-02-17T02:09:52.945Z,11.20
2023-02-17T02:12:25.681Z,12.02
2023-02-17T02:14:54.965Z,12.25
2023-02-17T02:17:36.820Z,12.85
2023-02-17T02:20:18.247Z,11.32
2023-02-17T02:22:56.619Z,14.43
2023-02-17T02:25:52.197Z,14.52
2023-02-17T02:28:29.039Z,12.23
2023-02-17T02:31:14.224Z,11.82
2023-02-17T02:34:02.973Z,13.18
2023-02-17T02:36:33.045Z,13.73
2023-02-17T02:39:17.218Z,13.68
2023-02-17T02:41:55.754Z,13.35
2023-02-17T02:44:22.981Z,13.45
2023-02-17T02:46:57.477Z,12.50
2023-02-17T02:49:24.475Z,12.57
2023-02-17T02:52:13.760Z,12.15
2023-02-17T02:54:49.308Z,13.93
2023-02-17T02:57:24.730Z,12.73
2023-02-17T03:00:10.644Z,12.00
2023-02-17T03:03:03.321Z,10.55
2023-02-17T03:05:42.515Z,11.77
2023-02-17T03:08:15.611Z,12.30
2023-02-17T03:10:48.280Z,14.00
2023-02-17T03:13:16.135Z,13.32
2023-02-17T03:15:43.134Z,14.43
2023-02-17T03:18:09.885Z,12.10
2023-02-17T03:20:39.629Z,11.93
2023-02-17T03:23:07.244Z,13.82
2023-02-17T03:25:33.789Z,13.63
2023-02-17T03:28:00.325Z,12.63
2023-02-17T03:30:26.947Z,11.68
2023-02-17T03:32:53.755Z,13.32
2023-02-17T03:35:20.410Z,10.90
2023-02-17T03:37:47.033Z,13.13
2023-02-17T03:40:13.592Z,10.73
2023-02-17T03:42:40.186Z,12.90
2023-02-17T03:45:07.043Z,13.45
2023-02-17T03:47:33.632Z,15.95
2023-02-17T03:50:00.167Z,12.32
2023-02-17T03:52:26.773Z,10.57
2023-02-17T03:54:53.377Z,10.90
2023-02-17T03:57:19.927Z,11.50
2023-02-17T03:59:46.516Z,12.82
2023-02-17T04:02:13.065Z,11.75
2023-02-17T04:04:39.809Z,13.02
2023-02-17T04:07:06.413Z,13.05
2023-02-17T04:09:32.947Z,13.52
2023-02-17T04:11:59.496Z,11.07
2023-02-17T04:14:26.004Z,14.02
2023-02-17T04:16:52.511Z,15.57
2023-02-17T04:19:21.158Z,14.75
2023-02-17T04:21:47.880Z,13.70
2023-02-17T04:24:14.464Z,12.18
2023-02-17T04:26:41.073Z,12.65
2023-02-17T04:29:07.596Z,14.32
2023-02-17T04:31:34.276Z,13.85
2023-02-17T04:34:00.905Z,13.15
2023-02-17T04:36:27.412Z,12.43
2023-02-17T04:38:53.978Z,13.00
2023-02-17T04:41:20.559Z,15.68
2023-02-17T04:43:47.208Z,16.02
2023-02-17T04:46:13.805Z,15.48
2023-02-17T04:48:40.411Z,13.38
2023-02-17T04:51:07.021Z,13.85
2023-02-17T04:53:33.627Z,16.80
2023-02-17T04:56:00.246Z,15.63
2023-02-17T04:58:26.837Z,16.25
2023-02-17T05:00:53.425Z,11.02
2023-02-17T05:03:20.316Z,14.60
2023-02-17T05:05:46.997Z,17.15
2023-02-17T05:08:13.612Z,13.63
2023-02-17T05:10:40.158Z,19.30
2023-02-17T05:13:06.925Z,14.70
2023-02-17T05:15:34.966Z,15.07
2023-02-17T05:18:02.089Z,16.58
2023-02-17T05:20:28.931Z,16.15
2023-02-17T05:22:55.472Z,15.70
2023-02-17T05:25:22.068Z,13.55
2023-02-17T05:27:48.766Z,14.65
2023-02-17T05:30:15.554Z,14.98
2023-02-17T05:32:42.200Z,13.57
2023-02-17T05:35:09.317Z,14.88
2023-02-17T05:37:36.178Z,14.63
2023-02-17T05:40:02.772Z,16.13
2023-02-17T05:42:29.494Z,15.20
2023-02-17T05:44:56.432Z,13.00
2023-02-17T05:47:23.803Z,13.82
2023-02-17T05:49:50.473Z,18.48
2023-02-17T05:52:18.321Z,16.52
2023-02-17T05:54:45.177Z,18.25
2023-02-17T05:57:11.803Z,16.48
2023-02-17T05:59:38.373Z,13.20
2023-02-17T06:02:04.988Z,14.95
2023-02-17T06:04:31.800Z,15.93
2023-02-17T06:06:58.514Z,16.50
2023-02-17T06:09:25.137Z,20.08
2023-02-17T06:11:52.152Z,15.50
2023-02-17T06:14:18.762Z,20.17
2023-02-17T06:16:45.338Z,11.98
2023-02-17T06:19:11.904Z,13.30
2023-02-17T06:21:38.496Z,13.13
2023-02-17T06:24:05.509Z,10.98
2023-02-17T06:26:32.035Z,13.05
2023-02-17T06:28:58.586Z,11.15
2023-02-17T06:31:25.154Z,10.68
2023-02-17T06:33:51.825Z,9.15
2023-02-17T06:36:18.376Z,14.75
2023-02-17T06:38:44.909Z,10.70
2023-02-17T06:41:11.481Z,11.40
2023-02-17T06:43:38.049Z,12.00
2023-02-17T06:46:05.074Z,12.07
2023-02-17T06:48:33.170Z,11.10
2023-02-17T06:51:00.745Z,10.48
2023-02-17T06:53:27.377Z,9.88
2023-02-17T06:55:53.931Z,10.40
2023-02-17T06:58:20.547Z,12.48
2023-02-17T07:00:47.126Z,11.43
2023-02-17T07:03:13.839Z,10.73
2023-02-17T07:05:40.427Z,9.15
2023-02-17T07:08:07.201Z,8.68
2023-02-17T07:10:34.286Z,10.98
2023-02-17T07:13:00.909Z,9.90
2023-02-17T07:15:27.518Z,12.23
2023-02-17T07:17:54.050Z,8.90
2023-02-17T07:20:20.626Z,10.52
2023-02-17T07:22:47.186Z,10.25
2023-02-17T07:25:13.752Z,8.52
2023-02-17T07:27:40.291Z,12.07
2023-02-17T07:30:07.555Z,10.75
2023-02-17T07:32:35.516Z,7.60
2023-02-17T07:35:02.148Z,6.15
2023-02-17T07:37:28.728Z,6.25
2023-02-17T07:39:57.105Z,8.15
2023-02-17T07:42:24.343Z,9.40
2023-02-17T07:44:50.944Z,16.30
2023-02-17T07:47:17.544Z,9.95
2023-02-17T07:49:44.268Z,12.48
2023-02-17T07:52:10.954Z,13.57
2023-02-17T07:54:37.548Z,8.75
2023-02-17T07:57:04.214Z,11.45
2023-02-17T07:59:30.745Z,10.70
2023-02-17T08:01:57.331Z,9.30
2023-02-17T08:04:24.031Z,9.70
2023-02-17T08:06:50.692Z,8.57
2023-02-17T08:09:35.925Z,9.07
2023-02-17T08:12:21.027Z,8.27
2023-02-17T08:14:47.540Z,10.93
2023-02-17T08:17:14.132Z,10.40
2023-02-17T08:19:48.125Z,9.45
2023-02-17T08:22:17.035Z,12.80
2023-02-17T08:24:43.704Z,9.23
2023-02-17T08:27:10.298Z,8.43
2023-02-17T08:29:36.885Z,11.20
2023-02-17T08:32:04.087Z,13.32
2023-02-17T08:34:33.786Z,13.32
2023-02-17T08:37:01.745Z,13.38
2023-02-17T08:39:28.679Z,8.45
2023-02-17T08:41:55.727Z,9.00
2023-02-17T08:44:22.680Z,10.23
2023-02-17T08:46:51.058Z,10.50
2023-02-17T08:49:21.615Z,11.18
2023-02-17T08:51:48.567Z,9.05
2023-02-17T08:54:15.150Z,9.35
2023-02-17T08:56:42.387Z,9.68
2023-02-17T08:59:10.876Z,9.02
2023-02-17T09:01:38.667Z,5.65
2023-02-17T09:04:07.866Z,6.00
2023-02-17T09:06:42.893Z,6.93
2023-02-17T09:09:11.584Z,8.97
2023-02-17T09:11:38.652Z,6.82
2023-02-17T09:14:05.646Z,10.00
2023-02-17T09:16:32.644Z,4.63
2023-02-17T09:18:59.238Z,3.70
2023-02-17T09:21:26.098Z,4.55
2023-02-17T09:23:53.891Z,4.53
2023-02-17T09:26:21.133Z,5.10
2023-02-17T09:28:48.618Z,3.75
2023-02-17T09:31:18.115Z,6.40
2023-02-17T09:33:45.351Z,4.53
2023-02-17T09:36:14.871Z,4.32
2023-02-17T09:38:42.178Z,5.63
2023-02-17T09:41:23.581Z,5.32
2023-02-17T09:43:51.911Z,3.95
2023-02-17T09:46:30.299Z,6.72
2023-02-17T09:49:02.151Z,3.67
2023-02-17T09:51:37.647Z,2.35
2023-02-17T09:54:11.072Z,2.30
2023-02-17T09:56:41.392Z,6.95
2023-02-17T09:59:42.962Z,4.28
2023-02-17T10:02:17.617Z,5.30
2023-02-17T10:04:47.126Z,6.50
2023-02-17T10:07:20.659Z,3.03
2023-02-17T10:09:52.649Z,4.15
2023-02-17T10:12:25.116Z,3.25
2023-02-17T10:14:59.672Z,5.15
2023-02-17T10:17:29.080Z,2.45
2023-02-17T10:20:06.913Z,3.63
2023-02-17T10:22:34.526Z,3.72
2023-02-17T10:25:02.712Z,3.75
2023-02-17T10:27:53.662Z,4.20
2023-02-17T10:30:57.711Z,3.97
2023-02-17T10:33:45.044Z,2.95
2023-02-17T10:36:33.999Z,2.78
2023-02-17T10:39:08.718Z,4.47
2023-02-17T10:41:38.039Z,3.33
2023-02-17T10:44:11.949Z,4.15
2023-02-17T10:46:42.191Z,3.08
2023-02-17T10:49:28.190Z,1.88
2023-02-17T10:51:55.866Z,3.00
2023-02-17T10:54:40.268Z,4.88
2023-02-17T10:57:12.845Z,4.07
2023-02-17T10:59:42.949Z,2.92
2023-02-17T11:02:17.559Z,3.88
2023-02-17T11:04:46.539Z,1.83
2023-02-17T11:07:16.733Z,3.63
2023-02-17T11:09:50.457Z,3.90
2023-02-17T11:12:22.922Z,2.33
2023-02-17T11:14:51.945Z,3.83
2023-02-17T11:17:39.888Z,2.92
2023-02-17T11:20:27.234Z,2.90
2023-02-17T11:23:04.675Z,2.72
2023-02-17T11:25:34.176Z,2.90
2023-02-17T11:28:24.944Z,2.75
2023-02-17T11:30:54.970Z,2.65
2023-02-17T11:33:37.610Z,2.03
2023-02-17T11:36:07.025Z,1.80
2023-02-17T11:38:39.908Z,3.22
2023-02-17T11:41:07.728Z,3.45
2023-02-17T11:43:36.067Z,2.75
2023-02-17T11:46:13.808Z,3.95
2023-02-17T11:49:01.738Z,3.28
2023-02-17T11:51:28.215Z,4.45
2023-02-17T11:54:20.637Z,5.93
2023-02-17T11:56:59.377Z,1.77
2023-02-17T11:59:34.504Z,3.42
2023-02-17T12:02:44.363Z,2.45
2023-02-17T12:05:13.922Z,3.13
2023-02-17T12:08:10.215Z,4.72
2023-02-17T12:10:56.290Z,3.33
2023-02-17T12:13:35.916Z,1.38
2023-02-17T12:16:17.467Z,2.70
2023-02-17T12:18:53.932Z,3.10
2023-02-17T12:21:23.160Z,4.97
2023-02-17T12:24:05.530Z,2.53
2023-02-17T12:26:32.965Z,2.70
2023-02-17T12:28:59.441Z,2.28
2023-02-17T12:31:57.245Z,3.67
2023-02-17T12:34:31.692Z,5.18
2023-02-17T12:36:59.461Z,1.38
2023-02-17T12:39:34.791Z,3.45
2023-02-17T12:42:06.720Z,4.45
2023-02-17T12:44:43.851Z,3.28
2023-02-17T12:47:26.846Z,1.63
2023-02-17T12:50:02.086Z,2.78
2023-02-17T12:52:38.761Z,2.33
2023-02-17T12:55:20.918Z,3.42
2023-02-17T12:57:58.616Z,5.32
2023-02-17T13:00:33.539Z,4.07
2023-02-17T13:03:02.145Z,4.27
2023-02-17T13:05:33.390Z,3.00
2023-02-17T13:08:07.021Z,15.98
2023-02-17T13:10:36.993Z,4.22
2023-02-17T13:13:26.737Z,4.22
2023-02-17T13:16:05.364Z,2.60
2023-02-17T13:18:35.701Z,0.77
2023-02-17T13:21:16.290Z,1.90
2023-02-17T13:23:45.915Z,2.00
2023-02-17T13:26:17.980Z,2.45
2023-02-17T13:28:45.510Z,2.60
2023-02-17T13:31:19.487Z,3.47
2023-02-17T13:33:58.365Z,3.50
2023-02-17T13:36:27.602Z,4.20
2023-02-17T13:39:00.525Z,5.45
2023-02-17T13:41:43.765Z,1.65
2023-02-17T13:44:19.177Z,2.83
2023-02-17T13:46:47.164Z,3.25
2023-02-17T13:49:22.332Z,4.40
2023-02-17T13:51:49.015Z,3.28
2023-02-17T13:54:21.235Z,2.25
2023-02-17T13:56:52.490Z,3.08
2023-02-17T13:59:26.244Z,2.83
2023-02-17T14:01:54.923Z,3.25
2023-02-17T14:04:31.337Z,1.20
2023-02-17T14:07:04.398Z,2.47
2023-02-17T14:09:33.091Z,4.25
2023-02-17T14:12:04.160Z,3.25
2023-02-17T14:14:37.146Z,2.90
2023-02-17T14:17:07.154Z,4.13
2023-02-17T14:20:00.904Z,5.28
2023-02-17T14:22:33.519Z,3.22
2023-02-17T14:25:11.713Z,2.15
2023-02-17T14:27:48.603Z,1.67
2023-02-17T14:30:15.335Z,3.95
2023-02-17T14:32:41.949Z,1.70
2023-02-17T14:35:14.598Z,2.95
2023-02-17T14:37:42.342Z,3.50
2023-02-17T14:40:20.136Z,2.05
2023-02-17T14:42:47.712Z,3.30
2023-02-17T14:45:15.345Z,5.43
2023-02-17T14:47:45.684Z,2.00
2023-02-17T14:50:13.698Z,2.47
2023-02-17T14:52:44.339Z,3.17
2023-02-17T14:55:26.752Z,4.65
2023-02-17T14:57:54.095Z,4.13
2023-02-17T15:00:20.853Z,4.10
2023-02-17T15:02:47.861Z,3.08
2023-02-17T15:05:14.492Z,1.73
2023-02-17T15:07:42.365Z,3.22
2023-02-17T15:10:27.133Z,2.83
2023-02-17T15:12:54.077Z,2.53
2023-02-17T15:15:21.163Z,5.85
2023-02-17T15:17:47.786Z,2.38
2023-02-17T15:20:16.616Z,2.75
2023-02-17T15:22:44.359Z,2.90
2023-02-17T15:25:19.234Z,3.00
2023-02-17T15:27:46.602Z,2.08
2023-02-17T15:30:16.665Z,3.10
2023-02-17T15:32:43.598Z,3.05
2023-02-17T15:35:22.840Z,3.53
2023-02-17T15:37:50.225Z,5.88
2023-02-17T15:40:24.555Z,2.67
2023-02-17T15:43:03.381Z,1.52
2023-02-17T15:45:30.900Z,3.97
2023-02-17T15:48:25.618Z,3.85
2023-02-17T15:50:53.064Z,2.97
2023-02-17T15:53:19.993Z,1.92
2023-02-17T15:55:46.889Z,1.50
2023-02-17T15:58:17.519Z,2.22
2023-02-17T16:00:49.788Z,4.97
2023-02-17T16:03:17.148Z,0.77
2023-02-17T16:05:44.004Z,3.03
2023-02-17T16:08:10.587Z,2.92
2023-02-17T16:10:39.512Z,3.10
2023-02-17T16:13:06.139Z,3.70
2023-02-17T16:15:33.086Z,2.67
2023-02-17T16:17:59.947Z,3.95
2023-02-17T16:20:34.657Z,2.55
2023-02-17T16:23:02.279Z,1.58
2023-02-17T16:25:29.280Z,3.17
2023-02-17T16:27:55.918Z,4.13
2023-02-17T16:30:32.201Z,2.85
2023-02-17T16:32:59.559Z,1.85
2023-02-17T16:35:32.043Z,5.97
2023-02-17T16:38:02.813Z,3.15
2023-02-17T16:40:32.429Z,3.50
2023-02-17T16:42:59.174Z,3.95
2023-02-17T16:45:28.879Z,2.50
2023-02-17T16:47:57.964Z,3.42
2023-02-17T16:50:27.808Z,4.32
2023-02-17T16:52:57.078Z,3.70
2023-02-17T16:55:27.381Z,2.75
2023-02-17T16:57:53.988Z,3.08
2023-02-17T17:00:23.220Z,2.95
2023-02-17T17:02:50.131Z,2.33
2023-02-17T17:05:18.637Z,1.55
2023-02-17T17:07:45.382Z,3.92
2023-02-17T17:10:17.164Z,5.43
2023-02-17T17:12:45.975Z,6.35
2023-02-17T17:15:13.404Z,3.53
2023-02-17T17:17:46.198Z,6.68
2023-02-17T17:20:18.849Z,4.57
2023-02-17T17:22:46.726Z,5.25
2023-02-17T17:25:14.472Z,3.55
2023-02-17T17:27:41.843Z,2.67
2023-02-17T17:30:18.666Z,4.15
2023-02-17T17:32:45.627Z,6.00
2023-02-17T17:35:12.668Z,2.47
2023-02-17T17:37:39.668Z,4.00
2023-02-17T17:40:07.078Z,3.53
2023-02-17T17:42:33.751Z,3.60
2023-02-17T17:45:00.321Z,3.22
2023-02-17T17:47:30.279Z,3.65
2023-02-17T17:49:57.191Z,3.65
2023-02-17T17:52:24.274Z,4.68
2023-02-17T17:54:50.958Z,2.83
2023-02-17T17:57:17.575Z,3.17
2023-02-17T17:59:44.280Z,2.30
2023-02-17T18:02:10.843Z,4.28
2023-02-17T18:04:37.381Z,3.75
2023-02-17T18:07:03.991Z,2.33
2023-02-17T18:09:36.607Z,2.58
2023-02-17T18:12:11.112Z,3.22
2023-02-17T18:14:40.048Z,3.35
2023-02-17T18:17:08.981Z,4.22
2023-02-17T18:19:35.662Z,2.88
2023-02-17T18:22:02.319Z,3.80
2023-02-17T18:24:28.897Z,2.33
2023-02-17T18:26:55.654Z,5.93
2023-02-17T18:29:22.463Z,3.58
2023-02-17T18:31:49.221Z,3.40
2023-02-17T18:34:15.851Z,2.70
2023-02-17T18:36:42.475Z,4.38
2023-02-17T18:39:08.979Z,4.65
2023-02-17T18:41:35.655Z,4.80
2023-02-17T18:44:04.657Z,3.65
2023-02-17T18:46:33.202Z,6.82
2023-02-17T18:49:00.302Z,2.33
2023-02-17T18:51:27.736Z,3.92
2023-02-17T18:53:56.515Z,4.55
2023-02-17T18:56:25.932Z,4.10
2023-02-17T18:58:55.288Z,3.95
2023-02-17T19:01:28.513Z,4.47
2023-02-17T19:03:55.576Z,4.22
2023-02-17T19:06:25.356Z,2.20
2023-02-17T19:08:52.613Z,3.47
2023-02-17T19:11:21.711Z,3.05
2023-02-17T19:13:49.208Z,5.25
2023-02-17T19:16:22.206Z,6.82
2023-02-17T19:18:49.090Z,2.60
2023-02-17T19:21:15.807Z,1.88
2023-02-17T19:23:42.686Z,3.13
2023-02-17T19:26:11.672Z,2.72
2023-02-17T19:28:39.579Z,2.53
2023-02-17T19:31:10.624Z,4.25
2023-02-17T19:33:37.511Z,2.47
2023-02-17T19:36:10.053Z,3.78
2023-02-17T19:38:37.032Z,2.83
2023-02-17T19:41:08.501Z,4.68
2023-02-17T19:43:35.482Z,9.60
2023-02-17T19:46:02.535Z,2.72
2023-02-17T19:48:29.306Z,2.58
2023-02-17T19:51:01.657Z,5.45
2023-02-17T19:53:28.727Z,2.95
2023-02-17T19:55:55.301Z,5.53
2023-02-17T19:58:21.868Z,2.28
2023-02-17T20:00:48.775Z,4.43
2023-02-17T20:03:15.402Z,5.10
2023-02-17T20:05:42.452Z,5.72
2023-02-17T20:08:09.035Z,4.28
2023-02-17T20:10:39.558Z,3.30
2023-02-17T20:13:06.108Z,2.78
2023-02-17T20:15:32.886Z,3.70
2023-02-17T20:17:59.644Z,3.13
2023-02-17T20:20:26.233Z,5.43
2023-02-17T20:22:52.760Z,3.00
2023-02-17T20:25:19.313Z,3.08
2023-02-17T20:27:45.836Z,2.70
2023-02-17T20:30:12.752Z,2.90
2023-02-17T20:32:39.536Z,3.35
2023-02-17T20:35:06.481Z,3.88
2023-02-17T20:37:33.041Z,2.45
2023-02-17T20:39:59.594Z,2.97
2023-02-17T20:42:26.124Z,5.63
2023-02-17T20:44:54.476Z,1.67
2023-02-17T20:47:21.070Z,4.35
2023-02-17T20:49:47.823Z,3.28
2023-02-17T20:52:14.411Z,3.05
2023-02-17T20:54:41.068Z,3.50
2023-02-17T20:57:15.164Z,3.53
2023-02-17T20:59:41.738Z,4.43
2023-02-17T21:02:08.334Z,2.63
2023-02-17T21:04:34.954Z,3.70
2023-02-17T21:07:01.629Z,3.38
2023-02-17T21:09:28.458Z,1.50
2023-02-17T21:11:55.041Z,5.20
2023-02-17T21:14:21.586Z,3.40
2023-02-17T21:16:48.281Z,2.83
2023-02-17T21:19:15.198Z,4.32
2023-02-17T21:21:41.854Z,3.25
2023-02-17T21:24:08.435Z,2.22
2023-02-17T21:26:35.072Z,3.60
2023-02-17T21:29:01.756Z,4.13
2023-02-17T21:31:31.116Z,5.82
2023-02-17T21:33:58.683Z,2.30
2023-02-17T21:36:27.464Z,4.07
2023-02-17T21:38:55.550Z,2.67
2023-02-17T21:41:26.501Z,2.83
2023-02-17T21:44:12.558Z,3.13
2023-02-17T21:46:41.758Z,2.53
2023-02-17T21:49:08.337Z,3.10
2023-02-17T21:51:37.231Z,3.50
2023-02-17T21:54:05.523Z,3.80
2023-02-17T21:56:32.637Z,2.30
2023-02-17T21:58:59.223Z,4.60
2023-02-17T22:01:27.128Z,2.97
2023-02-17T22:03:54.167Z,4.75
2023-02-17T22:06:24.237Z,2.75
2023-02-17T22:08:51.005Z,3.75
2023-02-17T22:11:20.670Z,2.97
2023-02-17T22:13:47.982Z,2.30
2023-02-17T22:16:15.233Z,4.57
2023-02-17T22:18:41.990Z,3.17
2023-02-17T22:21:11.972Z,2.28
2023-02-17T22:23:39.224Z,2.85
2023-02-17T22:26:11.284Z,4.88
2023-02-17T22:28:38.195Z,5.38
2023-02-17T22:31:05.781Z,6.75
2023-02-17T22:33:32.899Z,3.53
2023-02-17T22:36:01.737Z,5.65
2023-02-17T22:38:28.725Z,7.53
2023-02-17T22:40:55.574Z,8.43
2023-02-17T22:43:22.438Z,6.20
2023-02-17T22:45:49.081Z,3.88
2023-02-17T22:48:15.691Z,7.00
2023-02-17T22:50:42.452Z,6.13
2023-02-17T22:53:09.033Z,7.95
2023-02-17T22:55:35.623Z,5.47
2023-02-17T22:58:02.205Z,6.93
2023-02-17T23:00:28.756Z,7.57
2023-02-17T23:02:55.346Z,7.13
2023-02-17T23:05:21.935Z,6.10
2023-02-17T23:07:48.586Z,8.18
2023-02-17T23:10:15.140Z,10.40
2023-02-17T23:12:41.740Z,8.45
2023-02-17T23:15:12.294Z,10.40
2023-02-17T23:17:56.328Z,11.63
2023-02-17T23:20:24.888Z,10.00
2023-02-17T23:22:51.944Z,9.07
2023-02-17T23:25:18.656Z,6.60
2023-02-17T23:27:45.228Z,9.77
2023-02-17T23:30:19.453Z,8.00
2023-02-17T23:32:46.025Z,7.65
2023-02-17T23:35:12.669Z,6.43
2023-02-17T23:37:39.262Z,9.10
2023-02-17T23:40:06.465Z,8.85
2023-02-17T23:42:33.033Z,10.48
2023-02-17T23:44:59.567Z,8.85
2023-02-17T23:47:26.277Z,9.15
2023-02-17T23:49:52.816Z,10.13
2023-02-17T23:52:19.336Z,6.68
2023-02-17T23:54:45.856Z,11.55
2023-02-17T23:57:12.476Z,10.88
2023-02-17T23:59:39.016Z,6.30
